createdAt,value
2023-03-23T15:58:53.130Z,99517.56
2023-03-23T16:01:26.692Z,99521.84
2023-03-23T16:04:01.407Z,99534.94
2023-03-23T16:06:30.574Z,99522.50
2023-03-23T16:09:53.236Z,99532.06
2023-03-23T16:12:41.694Z,99546.78
2023-03-23T16:15:35.904Z,99540.16
2023-03-23T16:18:17.272Z,99541.28
2023-03-23T16:20:51.621Z,99536.31
2023-03-23T16:23:32.152Z,99544.97
2023-03-23T16:26:28.924Z,99543.88
2023-03-23T16:29:09.609Z,99540.06
2023-03-23T16:31:46.744Z,99542.78
2023-03-23T16:34:22.792Z,99537.28
2023-03-23T16:37:16.902Z,99556.63
2023-03-23T16:40:12.472Z,99560.56
2023-03-23T16:42:39.931Z,99557.22
2023-03-23T16:45:07.940Z,99553.28
2023-03-23T16:47:36.179Z,99562.44
2023-03-23T16:50:06.967Z,99570.72
2023-03-23T16:52:46.302Z,99573.91
2023-03-23T16:55:18.193Z,99569.28
2023-03-23T16:57:49.827Z,99569.16
2023-03-23T17:00:33.579Z,99566.41
2023-03-23T17:03:06.104Z,99566.56
2023-03-23T17:05:40.224Z,99561.16
2023-03-23T17:08:30.469Z,99575.56
2023-03-23T17:10:58.129Z,99567.31
2023-03-23T17:13:28.528Z,99562.69
2023-03-23T17:15:57.440Z,99579.38
2023-03-23T17:18:25.520Z,99577.03
2023-03-23T17:20:54.556Z,99572.81
2023-03-23T17:23:22.127Z,99580.66
2023-03-23T17:25:50.564Z,99580.13
2023-03-23T17:28:19.697Z,99576.84
2023-03-23T17:30:49.030Z,99579.06
2023-03-23T17:33:16.178Z,99586.25
2023-03-23T17:35:47.244Z,99595.53
2023-03-23T17:38:14.897Z,99580.06
2023-03-23T17:40:45.754Z,99576.69
2023-03-23T17:43:14.387Z,99597.81
2023-03-23T17:45:44.377Z,99593.94
2023-03-23T17:48:13.056Z,99594.06
2023-03-23T17:50:40.567Z,99579.66
2023-03-23T17:53:08.930Z,99585.19
2023-03-23T17:55:36.633Z,99591.63
2023-03-23T17:58:03.817Z,99595.53
2023-03-23T18:00:33.537Z,99592.13
2023-03-23T18:03:02.067Z,99593.53
2023-03-23T18:05:32.467Z,99586.34
2023-03-23T18:07:59.781Z,99606.81
2023-03-23T18:10:27.533Z,99599.50
2023-03-23T18:12:57.126Z,99601.28
2023-03-23T18:15:31.117Z,99594.13
2023-03-23T18:18:06.826Z,99603.59
2023-03-23T18:20:34.527Z,99607.19
2023-03-23T18:23:04.788Z,99595.47
2023-03-23T18:25:33.511Z,99609.53
2023-03-23T18:28:04.574Z,99615.44
2023-03-23T18:30:34.897Z,99617.44
2023-03-23T18:33:03.547Z,99600.53
2023-03-23T18:35:31.981Z,99611.66
2023-03-23T18:37:59.400Z,99614.59
2023-03-23T18:40:30.124Z,99611.75
2023-03-23T18:42:57.749Z,99606.41
2023-03-23T18:45:25.808Z,99618.47
2023-03-23T18:47:54.721Z,99624.16
2023-03-23T18:50:24.724Z,99619.66
2023-03-23T18:52:53.712Z,99611.38
2023-03-23T18:55:31.346Z,99619.53
2023-03-23T18:58:00.359Z,99618.59
2023-03-23T19:00:56.459Z,99606.75
2023-03-23T19:03:25.224Z,99607.13
2023-03-23T19:05:52.818Z,99605.31
2023-03-23T19:08:20.363Z,99616.34
2023-03-23T19:10:49.570Z,99604.84
2023-03-23T19:13:18.887Z,99620.47
2023-03-23T19:15:46.685Z,99612.53
2023-03-23T19:18:19.674Z,99623.19
2023-03-23T19:21:13.331Z,99624.84
2023-03-23T19:23:41.864Z,99623.88
2023-03-23T19:26:17.518Z,99634.66
2023-03-23T19:29:21.414Z,99624.47
2023-03-23T19:32:01.414Z,99629.31
2023-03-23T19:34:39.675Z,99631.09
2023-03-23T19:37:11.326Z,99637.16
2023-03-23T19:40:31.417Z,99628.38
2023-03-23T19:42:59.623Z,99631.44
2023-03-23T19:45:28.495Z,99636.50
2023-03-23T19:47:58.683Z,99640.31
2023-03-23T19:50:31.657Z,99637.75
2023-03-23T19:53:01.839Z,99633.09
2023-03-23T19:55:30.450Z,99646.56
2023-03-23T19:58:07.225Z,99630.81
2023-03-23T20:00:36.114Z,99650.19
2023-03-23T20:03:23.768Z,99647.97
2023-03-23T20:05:51.382Z,99645.50
2023-03-23T20:08:18.949Z,99644.66
2023-03-23T20:10:49.498Z,99653.88
2023-03-23T20:13:44.728Z,99656.06
2023-03-23T20:16:13.489Z,99647.91
2023-03-23T20:18:49.965Z,99646.84
2023-03-23T20:21:22.693Z,99650.47
2023-03-23T20:23:57.000Z,99660.34
2023-03-23T20:26:30.280Z,99656.59
2023-03-23T20:28:58.499Z,99655.91
2023-03-23T20:31:36.838Z,99657.06
2023-03-23T20:34:13.232Z,99648.81
2023-03-23T20:36:46.807Z,99651.91
2023-03-23T20:39:21.319Z,99651.22
2023-03-23T20:41:54.595Z,99641.41
2023-03-23T20:44:25.345Z,99645.81
2023-03-23T20:46:53.733Z,99653.03
2023-03-23T20:49:23.140Z,99651.06
2023-03-23T20:51:51.993Z,99650.63
2023-03-23T20:54:29.113Z,99645.72
2023-03-23T20:57:02.649Z,99643.38
2023-03-23T20:59:31.984Z,99636.88
2023-03-23T21:02:04.808Z,99641.88
2023-03-23T21:04:34.160Z,99643.09
2023-03-23T21:07:02.444Z,99646.09
2023-03-23T21:09:30.949Z,99637.34
2023-03-23T21:11:59.962Z,99632.81
2023-03-23T21:14:27.944Z,99636.88
2023-03-23T21:16:58.393Z,99632.34
2023-03-23T21:19:33.137Z,99649.25
2023-03-23T21:22:01.765Z,99646.94
2023-03-23T21:24:32.392Z,99636.25
2023-03-23T21:27:03.165Z,99638.97
2023-03-23T21:29:31.000Z,99640.28
2023-03-23T21:34:29.945Z,99634.56
2023-03-23T21:36:57.381Z,99637.50
2023-03-23T21:39:28.523Z,99637.94
2023-03-23T21:41:56.174Z,99648.72
2023-03-23T21:44:25.030Z,99650.25
2023-03-23T21:47:04.434Z,99645.56
2023-03-23T21:50:06.916Z,99643.22
2023-03-23T21:52:36.247Z,99642.16
2023-03-23T21:55:54.637Z,99649.84
2023-03-23T21:58:25.584Z,99630.25
2023-03-23T22:00:55.492Z,99624.19
2023-03-23T22:03:42.468Z,99623.75
2023-03-23T22:06:35.286Z,99617.47
2023-03-23T22:09:11.085Z,99617.03
2023-03-23T22:11:46.305Z,99611.22
2023-03-23T22:14:17.049Z,99608.75
2023-03-23T22:16:44.846Z,99618.16
2023-03-23T22:19:12.563Z,99603.38
2023-03-23T22:21:41.927Z,99605.13
2023-03-23T22:24:11.697Z,99596.44
2023-03-23T22:26:40.086Z,99611.53
2023-03-23T22:29:07.790Z,99606.78
2023-03-23T22:31:36.527Z,99590.88
2023-03-23T22:34:05.289Z,99603.63
2023-03-23T22:36:34.068Z,99606.72
2023-03-23T22:39:02.249Z,99589.66
2023-03-23T22:41:33.065Z,99604.31
2023-03-23T22:44:00.936Z,99608.75
2023-03-23T22:46:29.250Z,99603.69
2023-03-23T22:49:29.155Z,99615.44
2023-03-23T22:52:02.251Z,99617.88
2023-03-23T22:54:30.719Z,99616.91
2023-03-23T22:57:11.364Z,99609.41
2023-03-23T22:59:41.485Z,99613.50
2023-03-23T23:02:42.005Z,99619.22
2023-03-23T23:08:33.494Z,99617.63
2023-03-23T23:11:20.158Z,99621.31
2023-03-23T23:14:14.959Z,99620.47
2023-03-23T23:17:13.212Z,99624.69
2023-03-23T23:20:42.972Z,99630.84
2023-03-23T23:23:16.116Z,99624.09
2023-03-23T23:25:44.544Z,99638.69
2023-03-23T23:28:31.548Z,99633.09
2023-03-23T23:30:59.754Z,99622.94
2023-03-23T23:33:27.103Z,99641.28
2023-03-23T23:35:56.512Z,99625.38
2023-03-23T23:38:23.910Z,99612.31
2023-03-23T23:40:59.199Z,99637.41
2023-03-23T23:43:38.465Z,99632.06
2023-03-23T23:46:12.711Z,99636.25
2023-03-23T23:49:04.957Z,99631.28
2023-03-23T23:51:51.684Z,99629.25
2023-03-23T23:54:54.663Z,99627.13
2023-03-23T23:57:51.296Z,99619.00
